sensor_id;sensor_type;location;lat;lon;timestamp;P1;durP1;ratioP1;P2;durP2;ratioP2
51907;SDS011;39320;53.214;6.556;2023-01-28T00:01:46;3.28;;;3.08;;
51907;SDS011;39320;53.214;6.556;2023-01-28T00:04:12;2.97;;;2.78;;
51907;SDS011;39320;53.214;6.556;2023-01-28T00:06:39;3.40;;;3.20;;
51907;SDS011;39320;53.214;6.556;2023-01-28T00:09:05;3.80;;;3.50;;
51907;SDS011;39320;53.214;6.556;2023-01-28T00:11:31;3.40;;;3.20;;
51907;SDS011;39320;53.214;6.556;2023-01-28T00:13:58;4.25;;;3.95;;
51907;SDS011;39320;53.214;6.556;2023-01-28T00:16:24;3.58;;;3.33;;
51907;SDS011;39320;53.214;6.556;2023-01-28T00:18:54;3.85;;;3.60;;
51907;SDS011;39320;53.214;6.556;2023-01-28T00:21:19;3.05;;;2.83;;
51907;SDS011;39320;53.214;6.556;2023-01-28T00:23:49;4.00;;;3.78;;
51907;SDS011;39320;53.214;6.556;2023-01-28T00:26:18;3.15;;;2.95;;
51907;SDS011;39320;53.214;6.556;2023-01-28T00:28:44;3.45;;;3.13;;
51907;SDS011;39320;53.214;6.556;2023-01-28T00:31:14;2.95;;;2.75;;
51907;SDS011;39320;53.214;6.556;2023-01-28T00:33:45;2.67;;;2.47;;
51907;SDS011;39320;53.214;6.556;2023-01-28T00:36:13;3.10;;;2.90;;
51907;SDS011;39320;53.214;6.556;2023-01-28T00:38:39;2.90;;;2.70;;
51907;SDS011;39320;53.214;6.556;2023-01-28T00:41:10;2.70;;;2.50;;
51907;SDS011;39320;53.214;6.556;2023-01-28T00:43:37;3.33;;;3.13;;
51907;SDS011;39320;53.214;6.556;2023-01-28T00:46:05;3.22;;;2.70;;
51907;SDS011;39320;53.214;6.556;2023-01-28T00:48:32;2.28;;;2.15;;
51907;SDS011;39320;53.214;6.556;2023-01-28T00:50:59;2.35;;;2.25;;
51907;SDS011;39320;53.214;6.556;2023-01-28T00:53:24;2.30;;;2.20;;
51907;SDS011;39320;53.214;6.556;2023-01-28T00:55:51;2.00;;;1.90;;
51907;SDS011;39320;53.214;6.556;2023-01-28T00:58:17;2.22;;;2.13;;
51907;SDS011;39320;53.214;6.556;2023-01-28T01:00:43;2.17;;;2.08;;
51907;SDS011;39320;53.214;6.556;2023-01-28T01:03:09;2.28;;;2.17;;
51907;SDS011;39320;53.214;6.556;2023-01-28T01:05:35;2.25;;;2.05;;
51907;SDS011;39320;53.214;6.556;2023-01-28T01:08:01;2.25;;;2.15;;
51907;SDS011;39320;53.214;6.556;2023-01-28T01:10:26;2.20;;;2.00;;
51907;SDS011;39320;53.214;6.556;2023-01-28T01:12:52;2.05;;;1.95;;
51907;SDS011;39320;53.214;6.556;2023-01-28T01:15:18;2.40;;;2.22;;
51907;SDS011;39320;53.214;6.556;2023-01-28T01:17:47;2.10;;;2.00;;
51907;SDS011;39320;53.214;6.556;2023-01-28T01:20:15;2.78;;;2.58;;
51907;SDS011;39320;53.214;6.556;2023-01-28T01:22:43;2.30;;;2.10;;
51907;SDS011;39320;53.214;6.556;2023-01-28T01:25:09;1.85;;;1.75;;
51907;SDS011;39320;53.214;6.556;2023-01-28T01:27:37;2.58;;;1.75;;
51907;SDS011;39320;53.214;6.556;2023-01-28T01:30:03;1.80;;;1.70;;
51907;SDS011;39320;53.214;6.556;2023-01-28T01:32:29;2.60;;;2.50;;
51907;SDS011;39320;53.214;6.556;2023-01-28T01:34:56;2.30;;;2.20;;
51907;SDS011;39320;53.214;6.556;2023-01-28T01:37:22;3.67;;;2.20;;
51907;SDS011;39320;53.214;6.556;2023-01-28T01:39:48;2.17;;;2.08;;
51907;SDS011;39320;53.214;6.556;2023-01-28T01:42:14;2.03;;;1.90;;
51907;SDS011;39320;53.214;6.556;2023-01-28T01:47:18;2.13;;;2.03;;
51907;SDS011;39320;53.214;6.556;2023-01-28T01:49:47;2.05;;;1.95;;
51907;SDS011;39320;53.214;6.556;2023-01-28T01:52:14;2.20;;;2.10;;
51907;SDS011;39320;53.214;6.556;2023-01-28T01:54:44;2.00;;;1.90;;
51907;SDS011;39320;53.214;6.556;2023-01-28T01:57:16;2.17;;;2.08;;
51907;SDS011;39320;53.214;6.556;2023-01-28T01:59:50;2.85;;;2.65;;
51907;SDS011;39320;53.214;6.556;2023-01-28T02:02:17;2.67;;;2.45;;
51907;SDS011;39320;53.214;6.556;2023-01-28T02:04:44;2.30;;;2.10;;
51907;SDS011;39320;53.214;6.556;2023-01-28T02:07:10;2.35;;;2.15;;
51907;SDS011;39320;53.214;6.556;2023-01-28T02:09:38;2.40;;;2.30;;
51907;SDS011;39320;53.214;6.556;2023-01-28T02:12:10;2.30;;;2.20;;
51907;SDS011;39320;53.214;6.556;2023-01-28T02:14:41;2.30;;;2.20;;
51907;SDS011;39320;53.214;6.556;2023-01-28T02:17:12;2.63;;;2.42;;
51907;SDS011;39320;53.214;6.556;2023-01-28T02:19:45;2.05;;;1.95;;
51907;SDS011;39320;53.214;6.556;2023-01-28T02:22:18;2.05;;;1.95;;
51907;SDS011;39320;53.214;6.556;2023-01-28T02:30:27;2.78;;;2.58;;
51907;SDS011;39320;53.214;6.556;2023-01-28T02:33:14;2.35;;;2.25;;
51907;SDS011;39320;53.214;6.556;2023-01-28T02:35:47;2.88;;;2.67;;
51907;SDS011;39320;53.214;6.556;2023-01-28T02:40:51;2.53;;;2.30;;
51907;SDS011;39320;53.214;6.556;2023-01-28T02:43:37;2.00;;;1.90;;
51907;SDS011;39320;53.214;6.556;2023-01-28T02:46:19;1.80;;;1.63;;
51907;SDS011;39320;53.214;6.556;2023-01-28T02:49:29;2.00;;;1.90;;
51907;SDS011;39320;53.214;6.556;2023-01-28T02:52:08;2.00;;;1.90;;
51907;SDS011;39320;53.214;6.556;2023-01-28T03:00:43;2.08;;;1.98;;
51907;SDS011;39320;53.214;6.556;2023-01-28T03:03:28;2.63;;;2.42;;
51907;SDS011;39320;53.214;6.556;2023-01-28T03:06:09;2.30;;;2.20;;
51907;SDS011;39320;53.214;6.556;2023-01-28T03:11:30;2.13;;;2.00;;
51907;SDS011;39320;53.214;6.556;2023-01-28T03:14:19;2.08;;;1.98;;
51907;SDS011;39320;53.214;6.556;2023-01-28T03:17:06;2.22;;;2.13;;
51907;SDS011;39320;53.214;6.556;2023-01-28T03:19:54;2.55;;;2.35;;
51907;SDS011;39320;53.214;6.556;2023-01-28T03:22:39;3.20;;;3.00;;
51907;SDS011;39320;53.214;6.556;2023-01-28T03:25:25;1.88;;;1.77;;
51907;SDS011;39320;53.214;6.556;2023-01-28T03:28:11;1.88;;;1.77;;
51907;SDS011;39320;53.214;6.556;2023-01-28T03:33:48;2.10;;;1.90;;
51907;SDS011;39320;53.214;6.556;2023-01-28T03:36:37;2.33;;;2.22;;
51907;SDS011;39320;53.214;6.556;2023-01-28T03:39:22;2.33;;;2.15;;
51907;SDS011;39320;53.214;6.556;2023-01-28T03:44:26;2.28;;;2.17;;
51907;SDS011;39320;53.214;6.556;2023-01-28T03:47:11;2.00;;;1.90;;
51907;SDS011;39320;53.214;6.556;2023-01-28T03:49:38;1.83;;;1.73;;
51907;SDS011;39320;53.214;6.556;2023-01-28T03:52:13;2.35;;;2.25;;
51907;SDS011;39320;53.214;6.556;2023-01-28T03:54:41;1.90;;;1.80;;
51907;SDS011;39320;53.214;6.556;2023-01-28T03:57:06;1.80;;;1.70;;
51907;SDS011;39320;53.214;6.556;2023-01-28T03:59:32;2.05;;;1.95;;
51907;SDS011;39320;53.214;6.556;2023-01-28T04:01:58;2.00;;;1.90;;
51907;SDS011;39320;53.214;6.556;2023-01-28T04:04:27;2.38;;;2.17;;
51907;SDS011;39320;53.214;6.556;2023-01-28T04:06:53;1.90;;;1.80;;
51907;SDS011;39320;53.214;6.556;2023-01-28T04:09:20;2.45;;;2.25;;
51907;SDS011;39320;53.214;6.556;2023-01-28T04:11:46;2.10;;;2.00;;
51907;SDS011;39320;53.214;6.556;2023-01-28T04:14:13;2.17;;;2.08;;
51907;SDS011;39320;53.214;6.556;2023-01-28T04:16:40;2.40;;;2.20;;
51907;SDS011;39320;53.214;6.556;2023-01-28T04:19:07;2.00;;;1.90;;
51907;SDS011;39320;53.214;6.556;2023-01-28T04:21:33;2.28;;;2.17;;
51907;SDS011;39320;53.214;6.556;2023-01-28T04:24:00;2.25;;;2.13;;
51907;SDS011;39320;53.214;6.556;2023-01-28T04:26:26;2.28;;;2.17;;
51907;SDS011;39320;53.214;6.556;2023-01-28T04:28:52;2.20;;;2.10;;
51907;SDS011;39320;53.214;6.556;2023-01-28T04:31:18;1.90;;;1.80;;
51907;SDS011;39320;53.214;6.556;2023-01-28T04:33:44;2.20;;;2.10;;
51907;SDS011;39320;53.214;6.556;2023-01-28T04:36:09;1.95;;;1.85;;
51907;SDS011;39320;53.214;6.556;2023-01-28T04:38:35;2.58;;;2.38;;
51907;SDS011;39320;53.214;6.556;2023-01-28T04:41:01;2.38;;;2.25;;
51907;SDS011;39320;53.214;6.556;2023-01-28T04:43:27;3.13;;;2.28;;
51907;SDS011;39320;53.214;6.556;2023-01-28T04:45:52;2.05;;;1.95;;
51907;SDS011;39320;53.214;6.556;2023-01-28T04:48:18;2.20;;;2.00;;
51907;SDS011;39320;53.214;6.556;2023-01-28T04:50:44;1.80;;;1.70;;
51907;SDS011;39320;53.214;6.556;2023-01-28T04:53:10;2.45;;;2.25;;
51907;SDS011;39320;53.214;6.556;2023-01-28T04:55:36;2.03;;;1.92;;
51907;SDS011;39320;53.214;6.556;2023-01-28T04:58:02;2.22;;;2.13;;
51907;SDS011;39320;53.214;6.556;2023-01-28T05:00:28;2.08;;;1.98;;
51907;SDS011;39320;53.214;6.556;2023-01-28T05:02:54;2.67;;;2.47;;
51907;SDS011;39320;53.214;6.556;2023-01-28T05:05:20;2.17;;;2.08;;
51907;SDS011;39320;53.214;6.556;2023-01-28T05:07:52;2.17;;;2.08;;
51907;SDS011;39320;53.214;6.556;2023-01-28T05:10:19;2.40;;;2.30;;
51907;SDS011;39320;53.214;6.556;2023-01-28T05:12:46;2.58;;;2.38;;
51907;SDS011;39320;53.214;6.556;2023-01-28T05:15:13;2.97;;;2.78;;
51907;SDS011;39320;53.214;6.556;2023-01-28T05:17:42;3.30;;;3.10;;
51907;SDS011;39320;53.214;6.556;2023-01-28T05:20:09;3.17;;;2.97;;
51907;SDS011;39320;53.214;6.556;2023-01-28T05:22:36;2.58;;;2.47;;
51907;SDS011;39320;53.214;6.556;2023-01-28T05:25:01;2.55;;;2.45;;
51907;SDS011;39320;53.214;6.556;2023-01-28T05:27:28;2.08;;;1.98;;
51907;SDS011;39320;53.214;6.556;2023-01-28T05:29:55;2.80;;;2.60;;
51907;SDS011;39320;53.214;6.556;2023-01-28T05:32:21;2.42;;;2.30;;
51907;SDS011;39320;53.214;6.556;2023-01-28T05:34:46;2.63;;;2.45;;
51907;SDS011;39320;53.214;6.556;2023-01-28T05:37:12;2.85;;;2.65;;
51907;SDS011;39320;53.214;6.556;2023-01-28T05:39:38;2.88;;;2.67;;
51907;SDS011;39320;53.214;6.556;2023-01-28T05:42:03;2.65;;;2.45;;
51907;SDS011;39320;53.214;6.556;2023-01-28T05:44:29;2.60;;;2.40;;
51907;SDS011;39320;53.214;6.556;2023-01-28T05:46:55;2.65;;;2.17;;
51907;SDS011;39320;53.214;6.556;2023-01-28T05:49:22;2.17;;;2.08;;
51907;SDS011;39320;53.214;6.556;2023-01-28T05:51:49;2.95;;;2.65;;
51907;SDS011;39320;53.214;6.556;2023-01-28T05:54:15;2.97;;;2.78;;
51907;SDS011;39320;53.214;6.556;2023-01-28T05:56:41;2.80;;;2.60;;
51907;SDS011;39320;53.214;6.556;2023-01-28T05:59:06;2.53;;;2.40;;
51907;SDS011;39320;53.214;6.556;2023-01-28T06:01:35;2.70;;;2.50;;
51907;SDS011;39320;53.214;6.556;2023-01-28T06:04:00;2.55;;;2.35;;
51907;SDS011;39320;53.214;6.556;2023-01-28T06:06:26;2.85;;;2.65;;
51907;SDS011;39320;53.214;6.556;2023-01-28T06:08:51;2.67;;;2.47;;
51907;SDS011;39320;53.214;6.556;2023-01-28T06:11:17;2.28;;;2.08;;
51907;SDS011;39320;53.214;6.556;2023-01-28T06:13:43;2.65;;;2.42;;
51907;SDS011;39320;53.214;6.556;2023-01-28T06:16:08;2.90;;;2.70;;
51907;SDS011;39320;53.214;6.556;2023-01-28T06:18:34;3.28;;;3.08;;
51907;SDS011;39320;53.214;6.556;2023-01-28T06:21:00;3.00;;;2.80;;
51907;SDS011;39320;53.214;6.556;2023-01-28T06:23:26;3.28;;;2.97;;
51907;SDS011;39320;53.214;6.556;2023-01-28T06:25:52;3.15;;;2.95;;
51907;SDS011;39320;53.214;6.556;2023-01-28T06:28:21;2.90;;;2.70;;
51907;SDS011;39320;53.214;6.556;2023-01-28T06:30:48;2.88;;;2.67;;
51907;SDS011;39320;53.214;6.556;2023-01-28T06:33:16;3.30;;;3.10;;
51907;SDS011;39320;53.214;6.556;2023-01-28T06:35:42;3.25;;;3.05;;
51907;SDS011;39320;53.214;6.556;2023-01-28T06:38:08;3.38;;;3.17;;
51907;SDS011;39320;53.214;6.556;2023-01-28T06:40:35;3.58;;;3.28;;
51907;SDS011;39320;53.214;6.556;2023-01-28T06:43:01;3.83;;;3.63;;
51907;SDS011;39320;53.214;6.556;2023-01-28T06:45:27;4.13;;;3.90;;
51907;SDS011;39320;53.214;6.556;2023-01-28T06:47:52;3.30;;;3.10;;
51907;SDS011;39320;53.214;6.556;2023-01-28T06:50:18;3.75;;;3.45;;
51907;SDS011;39320;53.214;6.556;2023-01-28T06:52:44;3.55;;;3.28;;
51907;SDS011;39320;53.214;6.556;2023-01-28T06:55:09;3.25;;;3.05;;
51907;SDS011;39320;53.214;6.556;2023-01-28T06:57:38;3.70;;;3.47;;
51907;SDS011;39320;53.214;6.556;2023-01-28T07:00:09;3.80;;;3.50;;
51907;SDS011;39320;53.214;6.556;2023-01-28T07:02:37;4.30;;;4.00;;
51907;SDS011;39320;53.214;6.556;2023-01-28T07:05:04;3.30;;;3.10;;
51907;SDS011;39320;53.214;6.556;2023-01-28T07:07:30;3.42;;;3.22;;
51907;SDS011;39320;53.214;6.556;2023-01-28T07:09:56;3.88;;;3.65;;
51907;SDS011;39320;53.214;6.556;2023-01-28T07:12:22;3.75;;;3.45;;
51907;SDS011;39320;53.214;6.556;2023-01-28T07:14:48;3.63;;;3.42;;
51907;SDS011;39320;53.214;6.556;2023-01-28T07:17:14;3.30;;;3.00;;
51907;SDS011;39320;53.214;6.556;2023-01-28T07:19:40;3.45;;;3.25;;
51907;SDS011;39320;53.214;6.556;2023-01-28T07:22:05;3.90;;;3.60;;
51907;SDS011;39320;53.214;6.556;2023-01-28T07:24:31;3.80;;;3.47;;
51907;SDS011;39320;53.214;6.556;2023-01-28T07:26:57;3.88;;;3.58;;
51907;SDS011;39320;53.214;6.556;2023-01-28T07:29:23;4.05;;;3.75;;
51907;SDS011;39320;53.214;6.556;2023-01-28T07:31:49;3.17;;;2.97;;
51907;SDS011;39320;53.214;6.556;2023-01-28T07:34:15;3.78;;;3.47;;
51907;SDS011;39320;53.214;6.556;2023-01-28T07:36:41;3.50;;;3.30;;
51907;SDS011;39320;53.214;6.556;2023-01-28T07:39:06;3.42;;;3.20;;
51907;SDS011;39320;53.214;6.556;2023-01-28T07:41:32;3.50;;;3.20;;
51907;SDS011;39320;53.214;6.556;2023-01-28T07:43:58;3.85;;;3.58;;
51907;SDS011;39320;53.214;6.556;2023-01-28T07:46:24;3.00;;;2.80;;
51907;SDS011;39320;53.214;6.556;2023-01-28T07:48:49;3.42;;;3.22;;
51907;SDS011;39320;53.214;6.556;2023-01-28T07:51:15;3.90;;;3.60;;
51907;SDS011;39320;53.214;6.556;2023-01-28T07:53:41;3.47;;;3.28;;
51907;SDS011;39320;53.214;6.556;2023-01-28T07:56:07;3.50;;;3.30;;
51907;SDS011;39320;53.214;6.556;2023-01-28T07:58:33;3.30;;;3.10;;
51907;SDS011;39320;53.214;6.556;2023-01-28T08:00:59;4.00;;;3.75;;
51907;SDS011;39320;53.214;6.556;2023-01-28T08:03:26;3.20;;;3.00;;
51907;SDS011;39320;53.214;6.556;2023-01-28T08:05:54;3.25;;;3.05;;
51907;SDS011;39320;53.214;6.556;2023-01-28T08:08:21;3.70;;;3.50;;
51907;SDS011;39320;53.214;6.556;2023-01-28T08:10:47;3.50;;;3.30;;
51907;SDS011;39320;53.214;6.556;2023-01-28T08:13:13;3.72;;;3.50;;
51907;SDS011;39320;53.214;6.556;2023-01-28T08:15:40;3.53;;;3.33;;
51907;SDS011;39320;53.214;6.556;2023-01-28T08:18:07;3.10;;;2.90;;
51907;SDS011;39320;53.214;6.556;2023-01-28T08:20:33;3.47;;;3.17;;
51907;SDS011;39320;53.214;6.556;2023-01-28T08:23:07;3.63;;;3.42;;
51907;SDS011;39320;53.214;6.556;2023-01-28T08:25:38;3.25;;;3.03;;
51907;SDS011;39320;53.214;6.556;2023-01-28T08:28:04;2.72;;;2.53;;
51907;SDS011;39320;53.214;6.556;2023-01-28T08:30:30;3.55;;;3.28;;
51907;SDS011;39320;53.214;6.556;2023-01-28T08:32:57;3.03;;;2.83;;
51907;SDS011;39320;53.214;6.556;2023-01-28T08:35:24;3.30;;;3.10;;
51907;SDS011;39320;53.214;6.556;2023-01-28T08:37:51;3.75;;;3.53;;
51907;SDS011;39320;53.214;6.556;2023-01-28T08:40:18;3.38;;;3.10;;
51907;SDS011;39320;53.214;6.556;2023-01-28T08:42:48;3.40;;;3.15;;
51907;SDS011;39320;53.214;6.556;2023-01-28T08:45:16;3.47;;;3.28;;
51907;SDS011;39320;53.214;6.556;2023-01-28T08:50:33;3.03;;;2.83;;
51907;SDS011;39320;53.214;6.556;2023-01-28T08:53:02;3.22;;;2.75;;
51907;SDS011;39320;53.214;6.556;2023-01-28T08:55:29;3.15;;;2.95;;
51907;SDS011;39320;53.214;6.556;2023-01-28T08:57:55;3.03;;;2.83;;
51907;SDS011;39320;53.214;6.556;2023-01-28T09:00:21;3.33;;;3.13;;
51907;SDS011;39320;53.214;6.556;2023-01-28T09:02:50;3.60;;;3.40;;
51907;SDS011;39320;53.214;6.556;2023-01-28T09:05:17;3.50;;;3.30;;
51907;SDS011;39320;53.214;6.556;2023-01-28T09:07:43;3.40;;;3.20;;
51907;SDS011;39320;53.214;6.556;2023-01-28T09:10:09;3.55;;;3.08;;
51907;SDS011;39320;53.214;6.556;2023-01-28T09:12:35;3.70;;;3.45;;
51907;SDS011;39320;53.214;6.556;2023-01-28T09:15:01;3.50;;;3.30;;
51907;SDS011;39320;53.214;6.556;2023-01-28T09:17:27;3.13;;;2.92;;
51907;SDS011;39320;53.214;6.556;2023-01-28T09:19:53;3.58;;;3.38;;
51907;SDS011;39320;53.214;6.556;2023-01-28T09:22:18;3.40;;;3.20;;
51907;SDS011;39320;53.214;6.556;2023-01-28T09:24:44;3.58;;;3.38;;
51907;SDS011;39320;53.214;6.556;2023-01-28T09:27:10;3.60;;;3.40;;
51907;SDS011;39320;53.214;6.556;2023-01-28T09:29:36;3.47;;;3.20;;
51907;SDS011;39320;53.214;6.556;2023-01-28T09:32:05;3.70;;;3.40;;
51907;SDS011;39320;53.214;6.556;2023-01-28T09:34:32;3.17;;;2.97;;
51907;SDS011;39320;53.214;6.556;2023-01-28T09:36:58;3.13;;;2.92;;
51907;SDS011;39320;53.214;6.556;2023-01-28T09:39:24;2.85;;;2.63;;
51907;SDS011;39320;53.214;6.556;2023-01-28T09:50:04;2.42;;;2.33;;
51907;SDS011;39320;53.214;6.556;2023-01-28T09:52:38;3.20;;;3.00;;
51907;SDS011;39320;53.214;6.556;2023-01-28T09:55:52;2.90;;;2.70;;
51907;SDS011;39320;53.214;6.556;2023-01-28T09:58:00;3.42;;;3.15;;
51907;SDS011;39320;53.214;6.556;2023-01-28T10:00:31;3.10;;;2.90;;
51907;SDS011;39320;53.214;6.556;2023-01-28T10:06:03;2.97;;;2.78;;
51907;SDS011;39320;53.214;6.556;2023-01-28T10:09:07;3.75;;;3.38;;
51907;SDS011;39320;53.214;6.556;2023-01-28T10:17:13;3.38;;;3.08;;
51907;SDS011;39320;53.214;6.556;2023-01-28T10:19:49;3.10;;;2.88;;
51907;SDS011;39320;53.214;6.556;2023-01-28T10:22:22;3.35;;;3.15;;
51907;SDS011;39320;53.214;6.556;2023-01-28T10:24:54;3.75;;;3.45;;
51907;SDS011;39320;53.214;6.556;2023-01-28T10:27:27;3.42;;;3.13;;
51907;SDS011;39320;53.214;6.556;2023-01-28T10:29:55;2.70;;;2.60;;
51907;SDS011;39320;53.214;6.556;2023-01-28T10:34:57;3.45;;;3.17;;
51907;SDS011;39320;53.214;6.556;2023-01-28T10:37:27;5.45;;;3.95;;
51907;SDS011;39320;53.214;6.556;2023-01-28T10:39:57;3.70;;;3.40;;
51907;SDS011;39320;53.214;6.556;2023-01-28T10:42:28;3.33;;;3.03;;
51907;SDS011;39320;53.214;6.556;2023-01-28T10:45:18;2.90;;;2.70;;
51907;SDS011;39320;53.214;6.556;2023-01-28T10:50:24;3.03;;;2.83;;
51907;SDS011;39320;53.214;6.556;2023-01-28T10:52:55;3.13;;;2.83;;
51907;SDS011;39320;53.214;6.556;2023-01-28T10:55:22;3.20;;;3.00;;
51907;SDS011;39320;53.214;6.556;2023-01-28T10:57:51;2.88;;;2.67;;
51907;SDS011;39320;53.214;6.556;2023-01-28T11:02:44;3.67;;;3.38;;
51907;SDS011;39320;53.214;6.556;2023-01-28T11:05:23;3.13;;;2.83;;
51907;SDS011;39320;53.214;6.556;2023-01-28T11:10:40;3.65;;;3.35;;
51907;SDS011;39320;53.214;6.556;2023-01-28T11:13:20;3.13;;;2.85;;
51907;SDS011;39320;53.214;6.556;2023-01-28T11:16:31;3.92;;;3.63;;
51907;SDS011;39320;53.214;6.556;2023-01-28T11:18:56;3.63;;;3.33;;
51907;SDS011;39320;53.214;6.556;2023-01-28T11:21:31;3.53;;;3.22;;
51907;SDS011;39320;53.214;6.556;2023-01-28T11:24:00;3.67;;;3.45;;
51907;SDS011;39320;53.214;6.556;2023-01-28T11:26:33;4.18;;;3.88;;
51907;SDS011;39320;53.214;6.556;2023-01-28T11:29:03;3.70;;;3.42;;
51907;SDS011;39320;53.214;6.556;2023-01-28T11:31:29;3.95;;;3.65;;
51907;SDS011;39320;53.214;6.556;2023-01-28T11:34:05;4.00;;;3.65;;
51907;SDS011;39320;53.214;6.556;2023-01-28T11:36:32;3.47;;;3.20;;
51907;SDS011;39320;53.214;6.556;2023-01-28T11:39:00;3.33;;;3.13;;
51907;SDS011;39320;53.214;6.556;2023-01-28T11:41:39;4.07;;;3.78;;
51907;SDS011;39320;53.214;6.556;2023-01-28T11:52:03;3.35;;;3.15;;
51907;SDS011;39320;53.214;6.556;2023-01-28T11:54:38;3.45;;;3.15;;
51907;SDS011;39320;53.214;6.556;2023-01-28T12:08:33;4.18;;;3.88;;
51907;SDS011;39320;53.214;6.556;2023-01-28T12:14:16;3.97;;;3.58;;
51907;SDS011;39320;53.214;6.556;2023-01-28T12:19:49;3.65;;;3.45;;
51907;SDS011;39320;53.214;6.556;2023-01-28T12:22:25;3.58;;;3.28;;
51907;SDS011;39320;53.214;6.556;2023-01-28T12:28:23;4.70;;;3.70;;
51907;SDS011;39320;53.214;6.556;2023-01-28T12:33:40;3.95;;;3.72;;
51907;SDS011;39320;53.214;6.556;2023-01-28T12:36:45;4.13;;;3.63;;
51907;SDS011;39320;53.214;6.556;2023-01-28T12:39:39;3.35;;;3.15;;
51907;SDS011;39320;53.214;6.556;2023-01-28T12:44:49;2.95;;;2.75;;
51907;SDS011;39320;53.214;6.556;2023-01-28T12:47:19;4.28;;;3.97;;
51907;SDS011;39320;53.214;6.556;2023-01-28T12:53:08;3.50;;;3.30;;
51907;SDS011;39320;53.214;6.556;2023-01-28T12:55:45;3.30;;;3.00;;
51907;SDS011;39320;53.214;6.556;2023-01-28T12:58:18;4.03;;;3.72;;
51907;SDS011;39320;53.214;6.556;2023-01-28T13:00:50;3.55;;;3.20;;
51907;SDS011;39320;53.214;6.556;2023-01-28T13:06:34;4.00;;;3.58;;
51907;SDS011;39320;53.214;6.556;2023-01-28T13:08:45;3.80;;;3.50;;
51907;SDS011;39320;53.214;6.556;2023-01-28T13:11:13;3.47;;;3.17;;
51907;SDS011;39320;53.214;6.556;2023-01-28T13:13:41;3.50;;;3.13;;
51907;SDS011;39320;53.214;6.556;2023-01-28T13:16:10;3.60;;;3.35;;
51907;SDS011;39320;53.214;6.556;2023-01-28T13:24:01;3.75;;;3.47;;
51907;SDS011;39320;53.214;6.556;2023-01-28T13:26:41;3.53;;;3.15;;
51907;SDS011;39320;53.214;6.556;2023-01-28T13:29:20;4.32;;;3.17;;
51907;SDS011;39320;53.214;6.556;2023-01-28T13:31:49;3.88;;;3.58;;
51907;SDS011;39320;53.214;6.556;2023-01-28T13:40:01;2.90;;;2.70;;
51907;SDS011;39320;53.214;6.556;2023-01-28T13:42:31;3.65;;;3.35;;
51907;SDS011;39320;53.214;6.556;2023-01-28T13:47:45;3.15;;;2.95;;
51907;SDS011;39320;53.214;6.556;2023-01-28T13:50:20;3.83;;;3.50;;
51907;SDS011;39320;53.214;6.556;2023-01-28T13:52:55;3.65;;;3.35;;
51907;SDS011;39320;53.214;6.556;2023-01-28T13:55:38;3.67;;;3.38;;
51907;SDS011;39320;53.214;6.556;2023-01-28T14:03:47;3.50;;;3.00;;
51907;SDS011;39320;53.214;6.556;2023-01-28T14:09:28;3.00;;;2.80;;
51907;SDS011;39320;53.214;6.556;2023-01-28T14:17:52;3.30;;;3.00;;
51907;SDS011;39320;53.214;6.556;2023-01-28T14:20:21;3.20;;;2.88;;
51907;SDS011;39320;53.214;6.556;2023-01-28T14:23:02;2.90;;;2.70;;
51907;SDS011;39320;53.214;6.556;2023-01-28T14:25:47;2.97;;;2.78;;
51907;SDS011;39320;53.214;6.556;2023-01-28T14:28:43;3.58;;;3.28;;
51907;SDS011;39320;53.214;6.556;2023-01-28T14:31:13;2.80;;;2.60;;
51907;SDS011;39320;53.214;6.556;2023-01-28T14:33:50;3.15;;;2.78;;
51907;SDS011;39320;53.214;6.556;2023-01-28T14:36:16;3.30;;;3.00;;
51907;SDS011;39320;53.214;6.556;2023-01-28T14:38:43;3.28;;;2.97;;
51907;SDS011;39320;53.214;6.556;2023-01-28T14:41:17;3.63;;;3.33;;
51907;SDS011;39320;53.214;6.556;2023-01-28T14:43:50;2.85;;;2.65;;
51907;SDS011;39320;53.214;6.556;2023-01-28T14:46:26;4.18;;;3.15;;
51907;SDS011;39320;53.214;6.556;2023-01-28T14:49:09;3.42;;;3.13;;
51907;SDS011;39320;53.214;6.556;2023-01-28T14:51:59;3.78;;;3.47;;
51907;SDS011;39320;53.214;6.556;2023-01-28T14:57:45;3.25;;;3.00;;
51907;SDS011;39320;53.214;6.556;2023-01-28T15:00:20;4.05;;;3.65;;
51907;SDS011;39320;53.214;6.556;2023-01-28T15:02:53;3.10;;;2.80;;
51907;SDS011;39320;53.214;6.556;2023-01-28T15:05:21;3.15;;;2.95;;
51907;SDS011;39320;53.214;6.556;2023-01-28T15:07:48;3.60;;;3.30;;
51907;SDS011;39320;53.214;6.556;2023-01-28T15:10:16;4.07;;;3.20;;
51907;SDS011;39320;53.214;6.556;2023-01-28T15:12:47;3.83;;;3.53;;
51907;SDS011;39320;53.214;6.556;2023-01-28T15:20:51;3.97;;;3.50;;
51907;SDS011;39320;53.214;6.556;2023-01-28T15:23:38;4.22;;;3.92;;
51907;SDS011;39320;53.214;6.556;2023-01-28T15:26:06;3.85;;;3.55;;
51907;SDS011;39320;53.214;6.556;2023-01-28T15:28:44;3.35;;;3.05;;
51907;SDS011;39320;53.214;6.556;2023-01-28T15:36:42;3.58;;;3.28;;
51907;SDS011;39320;53.214;6.556;2023-01-28T15:39:19;3.70;;;3.40;;
51907;SDS011;39320;53.214;6.556;2023-01-28T15:41:48;3.83;;;3.53;;
51907;SDS011;39320;53.214;6.556;2023-01-28T15:44:41;4.03;;;3.70;;
51907;SDS011;39320;53.214;6.556;2023-01-28T15:47:28;3.45;;;3.15;;
51907;SDS011;39320;53.214;6.556;2023-01-28T15:49:58;3.67;;;3.25;;
51907;SDS011;39320;53.214;6.556;2023-01-28T15:52:32;3.20;;;2.90;;
51907;SDS011;39320;53.214;6.556;2023-01-28T15:55:04;4.13;;;3.83;;
51907;SDS011;39320;53.214;6.556;2023-01-28T15:57:31;3.10;;;2.80;;
51907;SDS011;39320;53.214;6.556;2023-01-28T16:00:08;3.67;;;3.20;;
51907;SDS011;39320;53.214;6.556;2023-01-28T16:02:49;3.95;;;3.65;;
51907;SDS011;39320;53.214;6.556;2023-01-28T16:05:25;3.65;;;3.25;;
51907;SDS011;39320;53.214;6.556;2023-01-28T16:07:53;3.70;;;3.40;;
51907;SDS011;39320;53.214;6.556;2023-01-28T16:10:25;3.88;;;3.58;;
51907;SDS011;39320;53.214;6.556;2023-01-28T16:12:55;3.95;;;3.50;;
51907;SDS011;39320;53.214;6.556;2023-01-28T16:15:28;3.95;;;3.60;;
51907;SDS011;39320;53.214;6.556;2023-01-28T16:17:55;4.15;;;3.75;;
51907;SDS011;39320;53.214;6.556;2023-01-28T16:20:23;4.18;;;3.78;;
51907;SDS011;39320;53.214;6.556;2023-01-28T16:22:50;3.92;;;3.55;;
51907;SDS011;39320;53.214;6.556;2023-01-28T16:27:46;4.30;;;3.45;;
51907;SDS011;39320;53.214;6.556;2023-01-28T16:30:12;3.75;;;3.28;;
51907;SDS011;39320;53.214;6.556;2023-01-28T16:32:39;3.78;;;3.10;;
51907;SDS011;39320;53.214;6.556;2023-01-28T16:35:16;3.50;;;3.20;;
51907;SDS011;39320;53.214;6.556;2023-01-28T16:37:45;3.20;;;2.90;;
51907;SDS011;39320;53.214;6.556;2023-01-28T16:40:12;3.78;;;3.47;;
51907;SDS011;39320;53.214;6.556;2023-01-28T16:42:39;4.00;;;3.67;;
51907;SDS011;39320;53.214;6.556;2023-01-28T16:45:05;2.92;;;2.72;;
51907;SDS011;39320;53.214;6.556;2023-01-28T16:47:31;3.78;;;3.47;;
51907;SDS011;39320;53.214;6.556;2023-01-28T16:49:58;3.33;;;3.13;;
51907;SDS011;39320;53.214;6.556;2023-01-28T16:52:24;3.72;;;2.97;;
51907;SDS011;39320;53.214;6.556;2023-01-28T16:54:49;3.67;;;3.38;;
51907;SDS011;39320;53.214;6.556;2023-01-28T16:57:16;4.30;;;3.20;;
51907;SDS011;39320;53.214;6.556;2023-01-28T16:59:44;3.78;;;3.45;;
51907;SDS011;39320;53.214;6.556;2023-01-28T17:02:11;4.05;;;3.67;;
51907;SDS011;39320;53.214;6.556;2023-01-28T17:04:37;3.92;;;3.63;;
51907;SDS011;39320;53.214;6.556;2023-01-28T17:07:03;3.75;;;3.35;;
51907;SDS011;39320;53.214;6.556;2023-01-28T17:09:29;4.15;;;3.83;;
51907;SDS011;39320;53.214;6.556;2023-01-28T17:11:55;3.08;;;2.78;;
51907;SDS011;39320;53.214;6.556;2023-01-28T17:14:21;2.97;;;2.78;;
51907;SDS011;39320;53.214;6.556;2023-01-28T17:16:47;3.00;;;2.72;;
51907;SDS011;39320;53.214;6.556;2023-01-28T17:19:12;3.55;;;3.20;;
51907;SDS011;39320;53.214;6.556;2023-01-28T17:21:40;3.80;;;3.17;;
51907;SDS011;39320;53.214;6.556;2023-01-28T17:24:06;3.67;;;3.33;;
51907;SDS011;39320;53.214;6.556;2023-01-28T17:26:32;3.00;;;2.67;;